createdAt,value
2023-09-13T00:01:16.129Z,13.07
2023-09-13T00:04:04.494Z,11.03
2023-09-13T00:06:52.383Z,11.37
2023-09-13T00:09:42.587Z,15.50
2023-09-13T00:12:31.411Z,7.77
2023-09-13T00:15:19.284Z,9.77
2023-09-13T00:18:07.101Z,12.20
2023-09-13T00:20:55.089Z,12.23
2023-09-13T00:23:43.213Z,12.57
2023-09-13T00:26:32.596Z,13.03
2023-09-13T00:29:20.896Z,11.43
2023-09-13T00:32:09.398Z,12.00
2023-09-13T00:34:57.660Z,10.50
2023-09-13T00:37:46.302Z,12.30
2023-09-13T00:40:34.929Z,11.47
2023-09-13T00:43:24.240Z,12.33
2023-09-13T00:46:12.407Z,10.33
2023-09-13T00:49:00.972Z,11.83
2023-09-13T00:51:49.683Z,10.43
2023-09-13T00:54:37.606Z,9.00
2023-09-13T00:57:25.426Z,9.70
2023-09-13T01:00:15.837Z,13.03
2023-09-13T01:03:03.864Z,13.37
2023-09-13T01:05:53.666Z,12.50
2023-09-13T01:08:42.794Z,16.23
2023-09-13T01:11:31.887Z,15.20
2023-09-13T01:14:20.343Z,14.17
2023-09-13T01:17:13.743Z,11.10
2023-09-13T01:20:04.578Z,11.40
2023-09-13T01:23:07.583Z,10.67
2023-09-13T01:26:00.651Z,7.73
2023-09-13T01:28:51.646Z,8.77
2023-09-13T01:31:40.077Z,8.67
2023-09-13T01:34:28.756Z,7.90
2023-09-13T01:37:18.331Z,8.23
2023-09-13T01:40:07.931Z,7.47
2023-09-13T01:42:58.083Z,6.53
2023-09-13T01:45:50.558Z,6.60
2023-09-13T01:48:39.645Z,6.57
2023-09-13T01:51:28.240Z,13.53
2023-09-13T01:54:16.051Z,7.53
2023-09-13T01:57:04.116Z,8.50
2023-09-13T01:59:52.168Z,5.93
2023-09-13T02:02:42.215Z,11.00
2023-09-13T02:05:30.095Z,9.77
2023-09-13T02:08:18.115Z,7.40
2023-09-13T02:11:07.937Z,6.60
2023-09-13T02:13:55.741Z,15.37
2023-09-13T02:16:44.760Z,8.87
2023-09-13T02:19:33.942Z,10.03
2023-09-13T02:22:21.784Z,7.27
2023-09-13T02:25:09.957Z,6.27
2023-09-13T02:27:57.853Z,10.60
2023-09-13T02:30:48.373Z,6.13
2023-09-13T02:33:36.520Z,12.00
2023-09-13T02:36:26.710Z,8.73
2023-09-13T02:39:29.533Z,10.40
2023-09-13T02:42:17.688Z,7.60
2023-09-13T02:45:05.929Z,9.73
2023-09-13T02:47:54.532Z,8.23
2023-09-13T02:50:43.271Z,10.73
2023-09-13T02:53:32.861Z,7.13
2023-09-13T02:56:21.244Z,8.27
2023-09-13T02:59:09.043Z,11.60
2023-09-13T03:01:57.120Z,5.70
2023-09-13T03:04:45.289Z,8.13
2023-09-13T03:07:33.206Z,10.90
2023-09-13T03:10:22.394Z,6.47
2023-09-13T03:13:10.344Z,8.47
2023-09-13T03:15:58.983Z,7.57
2023-09-13T03:18:47.455Z,8.17
2023-09-13T03:21:37.292Z,8.17
2023-09-13T03:24:25.457Z,8.20
2023-09-13T03:27:14.607Z,9.13
2023-09-13T03:30:03.108Z,8.83
2023-09-13T03:32:52.331Z,10.90
2023-09-13T03:35:40.548Z,7.10
2023-09-13T03:38:28.416Z,12.80
2023-09-13T03:41:17.679Z,7.10
2023-09-13T03:44:07.084Z,7.17
2023-09-13T03:46:57.727Z,7.37
2023-09-13T03:49:46.878Z,7.67
2023-09-13T03:52:34.662Z,8.33
2023-09-13T03:55:22.616Z,6.60
2023-09-13T03:58:10.647Z,7.80
2023-09-13T04:01:00.691Z,8.67
2023-09-13T04:03:49.442Z,8.60
2023-09-13T04:06:38.181Z,6.77
2023-09-13T04:09:27.488Z,7.30
2023-09-13T04:12:15.293Z,7.00
2023-09-13T04:15:04.717Z,7.70
2023-09-13T04:17:53.933Z,7.50
2023-09-13T04:20:43.853Z,7.10
2023-09-13T04:23:31.716Z,9.20
2023-09-13T04:26:22.778Z,10.90
2023-09-13T04:29:10.720Z,8.10
2023-09-13T04:31:58.938Z,9.03
2023-09-13T04:34:48.144Z,9.63
2023-09-13T04:37:38.155Z,7.23
2023-09-13T04:40:26.519Z,10.07
2023-09-13T04:43:24.869Z,10.07
2023-09-13T04:46:13.832Z,8.73
2023-09-13T04:49:01.846Z,8.20
2023-09-13T04:51:52.169Z,10.97
2023-09-13T04:54:40.035Z,12.33
2023-09-13T04:57:28.378Z,9.87
2023-09-13T05:00:17.648Z,9.77
2023-09-13T05:03:05.686Z,11.27
2023-09-13T05:05:53.607Z,12.77
2023-09-13T05:08:42.750Z,10.13
2023-09-13T05:11:31.047Z,8.33
2023-09-13T05:14:18.856Z,10.27
2023-09-13T05:17:06.780Z,11.77
2023-09-13T05:19:55.247Z,10.73
2023-09-13T05:22:43.841Z,11.43
2023-09-13T05:25:33.072Z,9.53
2023-09-13T05:28:20.995Z,8.47
2023-09-13T05:31:09.087Z,8.53
2023-09-13T05:33:57.119Z,7.57
2023-09-13T05:36:45.525Z,9.30
2023-09-13T05:39:33.312Z,8.70
2023-09-13T05:42:22.458Z,8.40
2023-09-13T05:45:11.085Z,8.13
2023-09-13T05:48:00.848Z,11.50
2023-09-13T05:50:48.818Z,9.97
2023-09-13T05:53:36.629Z,9.20
2023-09-13T05:56:26.571Z,11.17
2023-09-13T05:59:16.920Z,10.30
2023-09-13T06:02:04.895Z,12.40
2023-09-13T06:04:58.522Z,11.63
2023-09-13T06:07:46.348Z,11.67
2023-09-13T06:10:34.186Z,18.67
2023-09-13T06:13:23.973Z,14.20
2023-09-13T06:16:13.173Z,11.37
2023-09-13T06:19:01.847Z,13.33
2023-09-13T06:21:50.999Z,11.80
2023-09-13T06:24:38.821Z,12.33
2023-09-13T06:27:26.622Z,15.37
2023-09-13T06:30:14.995Z,13.90
2023-09-13T06:33:12.175Z,13.37
2023-09-13T06:36:01.567Z,9.87
2023-09-13T06:38:50.078Z,10.67
2023-09-13T06:44:42.896Z,11.23
2023-09-13T06:47:37.146Z,18.03
2023-09-13T06:50:50.889Z,13.43
2023-09-13T06:53:35.748Z,12.93
2023-09-13T06:56:30.428Z,16.80
2023-09-13T06:59:21.979Z,11.60
2023-09-13T07:02:30.439Z,14.33
2023-09-13T07:08:10.489Z,14.83
2023-09-13T07:10:58.399Z,13.77
2023-09-13T07:13:47.021Z,13.33
2023-09-13T07:16:35.054Z,12.33
2023-09-13T07:19:22.919Z,10.67
2023-09-13T07:22:10.878Z,9.27
2023-09-13T07:24:39.932Z,10.30
2023-09-13T07:27:07.518Z,9.20
2023-09-13T07:29:35.481Z,10.20
2023-09-13T07:32:04.138Z,12.63
2023-09-13T07:34:32.954Z,15.83
2023-09-13T07:37:00.568Z,10.37
2023-09-13T07:39:28.429Z,13.40
2023-09-13T07:41:57.451Z,9.53
2023-09-13T07:44:24.927Z,8.83
2023-09-13T07:46:52.499Z,9.00
2023-09-13T07:49:20.044Z,10.60
2023-09-13T07:51:47.563Z,9.63
2023-09-13T07:54:17.256Z,12.47
2023-09-13T07:56:46.934Z,9.57
2023-09-13T07:59:18.386Z,8.97
2023-09-13T08:01:46.261Z,7.93
2023-09-13T08:04:13.884Z,8.60
2023-09-13T08:06:42.549Z,9.10
2023-09-13T08:09:10.378Z,10.87
2023-09-13T08:11:38.216Z,9.53
2023-09-13T08:14:05.768Z,8.73
2023-09-13T08:16:34.848Z,9.60
2023-09-13T08:19:02.353Z,8.13
2023-09-13T08:21:30.036Z,8.43
2023-09-13T08:23:57.494Z,8.50
2023-09-13T08:26:28.291Z,6.67
2023-09-13T08:28:56.059Z,7.77
2023-09-13T08:31:25.138Z,7.67
2023-09-13T08:33:55.005Z,8.33
2023-09-13T08:36:22.491Z,6.60
2023-09-13T08:38:49.957Z,8.53
2023-09-13T08:41:18.085Z,5.77
2023-09-13T08:43:46.080Z,5.70
2023-09-13T08:46:14.224Z,5.10
2023-09-13T08:48:43.810Z,5.27
2023-09-13T08:51:13.616Z,4.77
2023-09-13T08:53:42.783Z,5.30
2023-09-13T08:56:10.524Z,5.00
2023-09-13T08:58:38.181Z,4.13
2023-09-13T09:01:10.218Z,7.37
2023-09-13T09:03:38.685Z,6.53
2023-09-13T09:06:07.363Z,7.50
2023-09-13T09:08:38.832Z,8.40
2023-09-13T09:11:06.771Z,5.80
2023-09-13T09:13:34.826Z,4.33
2023-09-13T09:16:03.228Z,4.63
2023-09-13T09:18:32.356Z,6.53
2023-09-13T09:21:01.393Z,6.07
2023-09-13T09:23:30.366Z,6.77
2023-09-13T09:26:00.642Z,5.10
2023-09-13T09:28:29.489Z,6.73
2023-09-13T09:30:57.101Z,6.37
2023-09-13T09:33:29.624Z,6.17
2023-09-13T09:35:58.188Z,4.83
2023-09-13T09:38:27.419Z,4.30
2023-09-13T09:40:57.332Z,5.90
2023-09-13T09:43:26.215Z,4.67
2023-09-13T09:45:54.157Z,4.13
2023-09-13T09:48:22.193Z,6.00
2023-09-13T09:50:50.381Z,5.63
2023-09-13T09:53:18.975Z,3.57
2023-09-13T09:55:46.802Z,4.00
2023-09-13T09:58:15.059Z,4.90
2023-09-13T10:00:48.538Z,4.47
2023-09-13T10:03:19.329Z,3.60
2023-09-13T10:05:53.939Z,2.90
2023-09-13T10:08:21.577Z,4.20
2023-09-13T10:10:52.385Z,4.33
2023-09-13T10:13:19.895Z,5.37
2023-09-13T10:15:48.688Z,4.67
2023-09-13T10:18:18.479Z,3.67
2023-09-13T10:20:46.982Z,5.50
2023-09-13T10:23:15.653Z,5.70
2023-09-13T10:25:44.446Z,4.60
2023-09-13T10:28:13.497Z,5.43
2023-09-13T10:30:43.506Z,3.60
2023-09-13T10:33:15.401Z,4.67
2023-09-13T10:35:46.579Z,4.30
2023-09-13T10:38:15.595Z,5.30
2023-09-13T10:40:45.644Z,5.50
2023-09-13T10:43:14.600Z,6.20
2023-09-13T10:45:42.780Z,8.67
2023-09-13T10:48:10.638Z,5.10
2023-09-13T10:50:40.321Z,4.77
2023-09-13T10:53:08.633Z,6.23
2023-09-13T10:55:36.987Z,4.53
2023-09-13T10:58:05.200Z,5.87
2023-09-13T11:00:34.041Z,5.53
2023-09-13T11:03:02.765Z,4.90
2023-09-13T11:05:31.194Z,6.43
2023-09-13T11:08:00.465Z,4.73
2023-09-13T11:10:32.082Z,6.53
2023-09-13T11:13:13.448Z,5.50
2023-09-13T11:15:49.315Z,4.13
2023-09-13T11:18:17.737Z,5.90
2023-09-13T11:20:45.421Z,6.10
2023-09-13T11:23:30.808Z,4.67
2023-09-13T11:26:05.969Z,4.37
2023-09-13T11:28:45.771Z,4.30
2023-09-13T11:31:15.943Z,4.53
2023-09-13T11:33:47.815Z,5.50
2023-09-13T11:36:17.336Z,3.47
2023-09-13T11:38:46.707Z,5.00
2023-09-13T11:41:17.931Z,3.47
2023-09-13T11:44:00.676Z,4.00
2023-09-13T11:46:30.796Z,4.40
2023-09-13T11:49:01.937Z,4.70
2023-09-13T11:51:51.809Z,2.60
2023-09-13T11:54:24.192Z,2.60
2023-09-13T11:57:10.054Z,3.47
2023-09-13T11:59:44.772Z,2.30
2023-09-13T12:02:16.188Z,2.13
2023-09-13T12:04:54.057Z,2.23
2023-09-13T12:07:32.134Z,2.20
2023-09-13T12:10:04.023Z,2.40
2023-09-13T12:12:46.910Z,2.93
2023-09-13T12:18:04.988Z,2.70
2023-09-13T12:20:32.880Z,2.73
2023-09-13T12:23:00.348Z,2.70
2023-09-13T12:25:29.192Z,4.70
2023-09-13T12:27:58.176Z,2.57
2023-09-13T12:30:27.775Z,3.07
2023-09-13T12:32:55.710Z,2.20
2023-09-13T12:35:24.268Z,2.57
2023-09-13T12:38:00.486Z,4.83
2023-09-13T12:40:29.728Z,5.63
2023-09-13T12:42:57.479Z,4.00
2023-09-13T12:45:25.733Z,3.33
2023-09-13T12:47:53.360Z,2.50
2023-09-13T12:50:33.133Z,1.93
2023-09-13T12:53:02.053Z,2.77
2023-09-13T12:55:31.814Z,3.67
2023-09-13T12:58:02.682Z,2.53
2023-09-13T13:00:30.404Z,2.93
2023-09-13T13:02:58.967Z,3.07
2023-09-13T13:05:26.827Z,1.80
2023-09-13T13:10:24.829Z,2.37
2023-09-13T13:12:56.815Z,1.90
2023-09-13T13:15:30.715Z,2.20
2023-09-13T13:17:58.240Z,1.70
2023-09-13T13:20:27.931Z,2.60
2023-09-13T13:22:55.841Z,3.07
2023-09-13T13:25:23.820Z,1.73
2023-09-13T13:27:51.579Z,1.90
2023-09-13T13:30:20.640Z,1.50
2023-09-13T13:32:48.233Z,1.50
2023-09-13T13:35:16.950Z,2.10
2023-09-13T13:37:47.706Z,1.57
2023-09-13T13:40:15.409Z,1.83
2023-09-13T13:42:42.969Z,1.60
2023-09-13T13:45:12.177Z,1.40
2023-09-13T13:47:41.322Z,3.80
2023-09-13T13:50:09.823Z,2.00
2023-09-13T13:52:37.294Z,3.53
2023-09-13T13:55:05.758Z,4.87
2023-09-13T13:57:38.038Z,2.57
2023-09-13T14:00:06.453Z,2.30
2023-09-13T14:02:40.988Z,2.27
2023-09-13T14:05:08.731Z,3.83
2023-09-13T14:07:36.380Z,2.70
2023-09-13T14:10:03.903Z,2.97
2023-09-13T14:12:31.413Z,3.27
2023-09-13T14:14:58.931Z,3.80
2023-09-13T14:17:27.016Z,2.43
2023-09-13T14:19:55.982Z,2.67
2023-09-13T14:22:23.529Z,2.63
2023-09-13T14:24:51.377Z,5.97
2023-09-13T14:27:18.945Z,4.70
2023-09-13T14:29:46.450Z,3.70
2023-09-13T14:32:13.921Z,5.97
2023-09-13T14:34:43.348Z,2.17
2023-09-13T14:37:12.187Z,2.73
2023-09-13T14:39:40.154Z,3.93
2023-09-13T14:42:07.776Z,3.03
2023-09-13T14:44:35.410Z,4.80
2023-09-13T14:47:03.122Z,5.60
2023-09-13T14:49:30.985Z,3.03
2023-09-13T14:51:58.453Z,2.67
2023-09-13T14:54:27.280Z,2.73
2023-09-13T14:56:54.925Z,3.63
2023-09-13T14:59:23.840Z,3.07
2023-09-13T15:01:52.165Z,4.90
2023-09-13T15:04:20.063Z,4.70
2023-09-13T15:06:48.221Z,3.63
2023-09-13T15:09:15.730Z,3.57
2023-09-13T15:11:44.573Z,5.63
2023-09-13T15:14:12.937Z,3.20
2023-09-13T15:16:41.552Z,3.97
2023-09-13T15:19:09.702Z,3.97
2023-09-13T15:21:38.324Z,3.60
2023-09-13T15:24:05.908Z,3.47
2023-09-13T15:26:33.750Z,3.43
2023-09-13T15:29:02.563Z,2.80
2023-09-13T15:31:49.919Z,5.37
2023-09-13T15:34:18.753Z,3.23
2023-09-13T15:36:46.406Z,3.90
2023-09-13T15:39:14.552Z,3.47
2023-09-13T15:41:42.049Z,3.50
2023-09-13T15:44:11.971Z,5.67
2023-09-13T15:46:43.110Z,2.90
2023-09-13T15:49:11.032Z,3.37
2023-09-13T15:51:39.500Z,5.33
2023-09-13T15:54:07.192Z,1.87
2023-09-13T15:56:34.902Z,2.37
2023-09-13T15:59:03.281Z,3.93
2023-09-13T16:01:33.750Z,4.23
2023-09-13T16:04:01.668Z,3.80
2023-09-13T16:06:29.325Z,3.37
2023-09-13T16:08:57.048Z,2.50
2023-09-13T16:11:25.480Z,3.43
2023-09-13T16:13:53.004Z,3.70
2023-09-13T16:16:20.513Z,3.63
2023-09-13T16:18:49.664Z,4.37
2023-09-13T16:21:17.261Z,2.80
2023-09-13T16:23:45.252Z,2.30
2023-09-13T16:26:12.958Z,2.63
2023-09-13T16:28:40.540Z,3.97
2023-09-13T16:31:08.906Z,7.13
2023-09-13T16:33:36.793Z,1.97
2023-09-13T16:36:05.785Z,2.27
2023-09-13T16:38:34.324Z,2.33
2023-09-13T16:41:01.746Z,2.80
2023-09-13T16:43:29.531Z,2.17
2023-09-13T16:45:58.217Z,2.60
2023-09-13T16:48:34.410Z,3.67
2023-09-13T16:51:03.939Z,3.30
2023-09-13T16:53:35.619Z,2.70
2023-09-13T16:56:03.204Z,6.03
2023-09-13T16:58:30.697Z,3.93
2023-09-13T17:00:58.700Z,2.37
2023-09-13T17:03:26.482Z,2.40
2023-09-13T17:05:54.598Z,2.00
2023-09-13T17:08:22.278Z,2.13
2023-09-13T17:10:51.078Z,2.77
2023-09-13T17:13:21.985Z,4.73
2023-09-13T17:15:49.615Z,3.27
2023-09-13T17:18:17.621Z,2.70
2023-09-13T17:20:45.856Z,2.50
2023-09-13T17:23:13.368Z,2.47
2023-09-13T17:25:40.889Z,2.50
2023-09-13T17:28:10.751Z,3.83
2023-09-13T17:30:38.398Z,3.47
2023-09-13T17:33:07.979Z,3.80
2023-09-13T17:35:35.787Z,2.60
2023-09-13T17:38:04.439Z,2.93
2023-09-13T17:40:32.463Z,5.40
2023-09-13T17:43:00.861Z,4.87
2023-09-13T17:45:30.443Z,3.93
2023-09-13T17:47:59.035Z,5.17
2023-09-13T17:50:26.619Z,2.83
2023-09-13T17:52:54.162Z,5.03
2023-09-13T17:55:22.468Z,2.80
2023-09-13T17:57:51.335Z,3.27
2023-09-13T18:00:18.907Z,3.00
2023-09-13T18:02:47.868Z,4.13
2023-09-13T18:05:15.438Z,4.40
2023-09-13T18:07:43.308Z,2.77
2023-09-13T18:10:12.357Z,2.60
2023-09-13T18:12:40.505Z,3.63
2023-09-13T18:15:09.364Z,3.07
2023-09-13T18:17:54.532Z,4.00
2023-09-13T18:20:25.331Z,3.13
2023-09-13T18:22:52.780Z,4.03
2023-09-13T18:25:20.288Z,4.23
2023-09-13T18:27:47.813Z,3.40
2023-09-13T18:30:15.878Z,3.37
2023-09-13T18:32:43.378Z,4.87
2023-09-13T18:35:11.229Z,4.20
2023-09-13T18:37:40.065Z,5.27
2023-09-13T18:40:08.064Z,4.00
2023-09-13T18:42:36.099Z,3.43
2023-09-13T18:45:05.683Z,3.40
2023-09-13T18:47:33.437Z,4.60
2023-09-13T18:50:00.912Z,5.20
2023-09-13T18:52:29.000Z,3.93
2023-09-13T18:54:57.842Z,4.13
2023-09-13T18:57:31.091Z,3.57
2023-09-13T18:59:58.632Z,3.17
2023-09-13T19:02:26.144Z,5.00
2023-09-13T19:04:54.098Z,4.13
2023-09-13T19:07:21.611Z,4.90
2023-09-13T19:09:49.131Z,3.50
2023-09-13T19:12:17.969Z,3.37
2023-09-13T19:14:46.297Z,6.27
2023-09-13T19:17:13.802Z,3.87
2023-09-13T19:19:41.944Z,4.23
2023-09-13T19:22:09.377Z,3.57
2023-09-13T19:24:50.209Z,3.67
2023-09-13T19:27:25.451Z,4.40
2023-09-13T19:29:54.058Z,3.37
2023-09-13T19:32:22.036Z,5.70
2023-09-13T19:34:50.400Z,4.20
2023-09-13T19:37:18.384Z,3.90
2023-09-13T19:39:45.865Z,3.83
2023-09-13T19:42:13.370Z,4.20
2023-09-13T19:44:42.292Z,4.00
2023-09-13T19:47:09.825Z,5.47
2023-09-13T19:49:37.366Z,6.83
2023-09-13T19:52:05.729Z,5.50
2023-09-13T19:54:34.297Z,5.17
2023-09-13T19:57:02.095Z,4.27
2023-09-13T19:59:30.434Z,4.33
2023-09-13T20:02:00.397Z,6.27
2023-09-13T20:04:27.865Z,6.83
2023-09-13T20:06:55.787Z,5.83
2023-09-13T20:09:23.299Z,5.10
2023-09-13T20:12:00.824Z,5.27
2023-09-13T20:14:28.298Z,5.33
2023-09-13T20:16:55.936Z,5.00
2023-09-13T20:19:24.762Z,7.03
2023-09-13T20:21:52.254Z,5.67
2023-09-13T20:24:20.519Z,6.90
2023-09-13T20:26:48.013Z,5.60
2023-09-13T20:29:15.702Z,8.53
2023-09-13T20:31:43.486Z,5.40
2023-09-13T20:34:12.149Z,6.63
2023-09-13T20:36:41.024Z,5.47
2023-09-13T20:39:09.733Z,7.13
2023-09-13T20:41:39.857Z,8.70
2023-09-13T20:44:08.380Z,6.33
2023-09-13T20:46:36.006Z,5.10
2023-09-13T20:49:04.240Z,5.70
2023-09-13T20:51:31.937Z,7.10
2023-09-13T20:54:02.928Z,6.83
2023-09-13T20:56:30.386Z,5.33
2023-09-13T20:58:57.876Z,5.77
2023-09-13T21:01:26.334Z,7.03
2023-09-13T21:03:55.208Z,7.00
2023-09-13T21:06:22.776Z,6.20
2023-09-13T21:08:50.839Z,6.50
2023-09-13T21:11:19.648Z,6.17
2023-09-13T21:13:47.108Z,6.23
2023-09-13T21:16:14.726Z,6.57
2023-09-13T21:18:42.263Z,8.30
2023-09-13T21:21:09.806Z,5.93
2023-09-13T21:23:37.291Z,6.23
2023-09-13T21:26:04.789Z,5.30
2023-09-13T21:28:34.488Z,5.97
2023-09-13T21:31:02.361Z,5.93
2023-09-13T21:33:29.892Z,6.77
2023-09-13T21:36:00.991Z,5.87
2023-09-13T21:38:30.596Z,5.07
2023-09-13T21:40:58.361Z,6.27
2023-09-13T21:43:25.943Z,5.67
2023-09-13T21:45:59.943Z,7.77
2023-09-13T21:48:27.572Z,6.40
2023-09-13T21:50:55.444Z,5.87
2023-09-13T21:53:23.138Z,6.40
2023-09-13T21:55:51.636Z,5.40
2023-09-13T21:58:20.721Z,5.13
2023-09-13T22:00:48.588Z,6.40
2023-09-13T22:03:18.177Z,4.90
2023-09-13T22:05:45.892Z,6.20
2023-09-13T22:08:13.485Z,4.80
2023-09-13T22:10:41.822Z,6.80
2023-09-13T22:13:09.401Z,5.30
2023-09-13T22:15:37.025Z,6.53
2023-09-13T22:18:04.868Z,6.50
2023-09-13T22:20:33.783Z,5.67
2023-09-13T22:23:01.373Z,6.47
2023-09-13T22:25:28.960Z,4.77
2023-09-13T22:27:56.518Z,7.27
2023-09-13T22:30:24.292Z,6.57
2023-09-13T22:32:52.937Z,8.67
2023-09-13T22:35:20.965Z,5.23
2023-09-13T22:37:50.528Z,7.60
2023-09-13T22:40:18.195Z,5.53
2023-09-13T22:42:47.212Z,6.70
2023-09-13T22:45:15.622Z,6.13
2023-09-13T22:47:44.060Z,7.37
2023-09-13T22:50:11.728Z,7.23
2023-09-13T22:52:39.475Z,6.93
2023-09-13T22:55:08.776Z,6.40
2023-09-13T22:57:38.094Z,7.73
2023-09-13T23:00:06.424Z,7.37
2023-09-13T23:02:35.522Z,7.07
2023-09-13T23:05:03.618Z,6.83
2023-09-13T23:07:31.153Z,6.43
2023-09-13T23:09:58.633Z,6.73
2023-09-13T23:12:27.517Z,6.00
2023-09-13T23:14:55.014Z,6.90
2023-09-13T23:17:22.504Z,8.33
2023-09-13T23:19:50.026Z,6.57
2023-09-13T23:22:17.888Z,5.87
2023-09-13T23:24:45.390Z,5.77
2023-09-13T23:27:13.002Z,3.90
2023-09-13T23:29:43.001Z,2.27
2023-09-13T23:32:10.454Z,2.33
2023-09-13T23:34:38.147Z,2.30
2023-09-13T23:37:05.636Z,3.47
2023-09-13T23:39:33.143Z,3.20
2023-09-13T23:42:00.597Z,3.40
2023-09-13T23:44:28.957Z,3.23
2023-09-13T23:46:58.904Z,3.20
2023-09-13T23:49:26.375Z,3.43
2023-09-13T23:51:55.025Z,5.07
2023-09-13T23:54:22.588Z,3.13
2023-09-13T23:56:50.236Z,3.37
2023-09-13T23:59:18.776Z,3.93
